sensor_id;sensor_type;location;lat;lon;timestamp;P1;durP1;ratioP1;P2;durP2;ratioP2
43345;SDS011;28937;51.160;4.146;2023-02-04T00:01:31;6.40;;;2.78;;
43345;SDS011;28937;51.160;4.146;2023-02-04T00:03:57;7.75;;;3.22;;
43345;SDS011;28937;51.160;4.146;2023-02-04T00:06:22;6.28;;;2.83;;
43345;SDS011;28937;51.160;4.146;2023-02-04T00:08:48;6.60;;;2.72;;
43345;SDS011;28937;51.160;4.146;2023-02-04T00:11:13;7.57;;;3.03;;
43345;SDS011;28937;51.160;4.146;2023-02-04T00:13:39;6.38;;;2.75;;
43345;SDS011;28937;51.160;4.146;2023-02-04T00:16:04;5.88;;;2.78;;
43345;SDS011;28937;51.160;4.146;2023-02-04T00:18:30;7.25;;;2.70;;
43345;SDS011;28937;51.160;4.146;2023-02-04T00:20:56;5.90;;;2.75;;
43345;SDS011;28937;51.160;4.146;2023-02-04T00:23:21;6.97;;;2.80;;
43345;SDS011;28937;51.160;4.146;2023-02-04T00:25:47;7.25;;;3.05;;
43345;SDS011;28937;51.160;4.146;2023-02-04T00:28:12;4.72;;;2.90;;
43345;SDS011;28937;51.160;4.146;2023-02-04T00:30:38;7.65;;;2.92;;
43345;SDS011;28937;51.160;4.146;2023-02-04T00:33:03;6.90;;;3.55;;
43345;SDS011;28937;51.160;4.146;2023-02-04T00:35:29;7.80;;;3.75;;
43345;SDS011;28937;51.160;4.146;2023-02-04T00:37:54;7.22;;;3.97;;
43345;SDS011;28937;51.160;4.146;2023-02-04T00:40:20;8.27;;;4.00;;
43345;SDS011;28937;51.160;4.146;2023-02-04T00:42:45;11.00;;;4.85;;
43345;SDS011;28937;51.160;4.146;2023-02-04T00:45:11;11.95;;;5.28;;
43345;SDS011;28937;51.160;4.146;2023-02-04T00:47:37;8.40;;;4.32;;
43345;SDS011;28937;51.160;4.146;2023-02-04T00:50:03;9.15;;;5.22;;
43345;SDS011;28937;51.160;4.146;2023-02-04T00:52:29;10.90;;;6.13;;
43345;SDS011;28937;51.160;4.146;2023-02-04T00:54:55;9.23;;;6.03;;
43345;SDS011;28937;51.160;4.146;2023-02-04T00:57:20;13.48;;;6.93;;
43345;SDS011;28937;51.160;4.146;2023-02-04T00:59:46;10.93;;;6.85;;
43345;SDS011;28937;51.160;4.146;2023-02-04T01:02:12;12.52;;;8.23;;
43345;SDS011;28937;51.160;4.146;2023-02-04T01:04:37;13.30;;;7.93;;
43345;SDS011;28937;51.160;4.146;2023-02-04T01:07:03;11.63;;;7.93;;
43345;SDS011;28937;51.160;4.146;2023-02-04T01:09:29;13.63;;;8.45;;
43345;SDS011;28937;51.160;4.146;2023-02-04T01:11:54;10.88;;;7.35;;
43345;SDS011;28937;51.160;4.146;2023-02-04T01:14:20;11.30;;;8.32;;
43345;SDS011;28937;51.160;4.146;2023-02-04T01:16:45;12.70;;;8.20;;
43345;SDS011;28937;51.160;4.146;2023-02-04T01:19:11;13.07;;;8.25;;
43345;SDS011;28937;51.160;4.146;2023-02-04T01:21:37;11.80;;;8.55;;
43345;SDS011;28937;51.160;4.146;2023-02-04T01:24:02;15.23;;;9.27;;
43345;SDS011;28937;51.160;4.146;2023-02-04T01:26:28;15.23;;;9.40;;
43345;SDS011;28937;51.160;4.146;2023-02-04T01:28:54;11.25;;;8.60;;
43345;SDS011;28937;51.160;4.146;2023-02-04T01:31:19;13.52;;;8.80;;
43345;SDS011;28937;51.160;4.146;2023-02-04T01:33:45;15.20;;;10.20;;
43345;SDS011;28937;51.160;4.146;2023-02-04T01:36:10;14.48;;;9.50;;
43345;SDS011;28937;51.160;4.146;2023-02-04T01:38:36;15.20;;;9.75;;
43345;SDS011;28937;51.160;4.146;2023-02-04T01:41:02;12.50;;;9.50;;
43345;SDS011;28937;51.160;4.146;2023-02-04T01:43:28;17.08;;;11.02;;
43345;SDS011;28937;51.160;4.146;2023-02-04T01:45:55;14.23;;;9.55;;
43345;SDS011;28937;51.160;4.146;2023-02-04T01:48:21;14.48;;;10.60;;
43345;SDS011;28937;51.160;4.146;2023-02-04T01:50:48;17.85;;;10.60;;
43345;SDS011;28937;51.160;4.146;2023-02-04T01:53:17;13.77;;;10.27;;
43345;SDS011;28937;51.160;4.146;2023-02-04T01:55:45;13.52;;;10.05;;
43345;SDS011;28937;51.160;4.146;2023-02-04T01:58:11;16.50;;;10.80;;
43345;SDS011;28937;51.160;4.146;2023-02-04T02:00:37;14.23;;;10.77;;
43345;SDS011;28937;51.160;4.146;2023-02-04T02:03:04;15.23;;;10.75;;
43345;SDS011;28937;51.160;4.146;2023-02-04T02:05:38;16.30;;;10.77;;
43345;SDS011;28937;51.160;4.146;2023-02-04T02:08:09;13.00;;;10.73;;
43345;SDS011;28937;51.160;4.146;2023-02-04T02:10:37;14.50;;;10.95;;
43345;SDS011;28937;51.160;4.146;2023-02-04T02:13:05;15.07;;;10.95;;
43345;SDS011;28937;51.160;4.146;2023-02-04T02:15:32;16.20;;;10.77;;
43345;SDS011;28937;51.160;4.146;2023-02-04T02:17:58;13.90;;;11.50;;
43345;SDS011;28937;51.160;4.146;2023-02-04T02:20:24;13.20;;;10.90;;
43345;SDS011;28937;51.160;4.146;2023-02-04T02:23:01;14.40;;;10.65;;
43345;SDS011;28937;51.160;4.146;2023-02-04T02:25:33;15.68;;;11.18;;
43345;SDS011;28937;51.160;4.146;2023-02-04T02:27:58;16.48;;;12.25;;
43345;SDS011;28937;51.160;4.146;2023-02-04T02:30:25;17.23;;;12.40;;
43345;SDS011;28937;51.160;4.146;2023-02-04T02:32:53;21.08;;;13.80;;
43345;SDS011;28937;51.160;4.146;2023-02-04T02:35:19;18.15;;;12.82;;
43345;SDS011;28937;51.160;4.146;2023-02-04T02:37:45;16.88;;;12.45;;
43345;SDS011;28937;51.160;4.146;2023-02-04T02:40:10;19.42;;;13.18;;
43345;SDS011;28937;51.160;4.146;2023-02-04T02:42:37;20.38;;;14.25;;
43345;SDS011;28937;51.160;4.146;2023-02-04T02:45:04;17.13;;;12.55;;
43345;SDS011;28937;51.160;4.146;2023-02-04T02:47:35;20.05;;;13.65;;
43345;SDS011;28937;51.160;4.146;2023-02-04T02:50:01;17.42;;;13.50;;
43345;SDS011;28937;51.160;4.146;2023-02-04T02:52:27;17.13;;;13.23;;
43345;SDS011;28937;51.160;4.146;2023-02-04T02:54:53;18.00;;;13.55;;
43345;SDS011;28937;51.160;4.146;2023-02-04T02:57:20;19.80;;;13.68;;
43345;SDS011;28937;51.160;4.146;2023-02-04T02:59:47;21.25;;;15.73;;
43345;SDS011;28937;51.160;4.146;2023-02-04T03:02:14;22.60;;;15.57;;
43345;SDS011;28937;51.160;4.146;2023-02-04T03:04:43;22.58;;;16.23;;
43345;SDS011;28937;51.160;4.146;2023-02-04T03:07:14;25.70;;;17.37;;
43345;SDS011;28937;51.160;4.146;2023-02-04T03:09:40;23.33;;;16.23;;
43345;SDS011;28937;51.160;4.146;2023-02-04T03:12:06;26.35;;;17.27;;
43345;SDS011;28937;51.160;4.146;2023-02-04T03:14:32;26.15;;;16.75;;
43345;SDS011;28937;51.160;4.146;2023-02-04T03:16:58;22.77;;;15.95;;
43345;SDS011;28937;51.160;4.146;2023-02-04T03:19:26;26.15;;;15.82;;
43345;SDS011;28937;51.160;4.146;2023-02-04T03:21:53;25.13;;;16.65;;
43345;SDS011;28937;51.160;4.146;2023-02-04T03:24:20;25.08;;;15.77;;
43345;SDS011;28937;51.160;4.146;2023-02-04T03:26:45;22.52;;;16.38;;
43345;SDS011;28937;51.160;4.146;2023-02-04T03:29:12;26.00;;;16.63;;
43345;SDS011;28937;51.160;4.146;2023-02-04T03:31:37;22.67;;;15.95;;
43345;SDS011;28937;51.160;4.146;2023-02-04T03:34:03;22.70;;;15.35;;
43345;SDS011;28937;51.160;4.146;2023-02-04T03:36:29;23.45;;;16.02;;
43345;SDS011;28937;51.160;4.146;2023-02-04T03:38:55;24.17;;;15.60;;
43345;SDS011;28937;51.160;4.146;2023-02-04T03:41:21;21.83;;;15.55;;
43345;SDS011;28937;51.160;4.146;2023-02-04T03:43:46;18.27;;;13.73;;
43345;SDS011;28937;51.160;4.146;2023-02-04T03:46:12;23.27;;;15.50;;
43345;SDS011;28937;51.160;4.146;2023-02-04T03:48:37;18.42;;;14.00;;
43345;SDS011;28937;51.160;4.146;2023-02-04T03:51:03;20.25;;;14.63;;
43345;SDS011;28937;51.160;4.146;2023-02-04T03:53:29;18.55;;;13.07;;
43345;SDS011;28937;51.160;4.146;2023-02-04T03:55:54;19.33;;;14.43;;
43345;SDS011;28937;51.160;4.146;2023-02-04T03:58:20;17.77;;;13.15;;
43345;SDS011;28937;51.160;4.146;2023-02-04T04:00:45;17.73;;;13.15;;
43345;SDS011;28937;51.160;4.146;2023-02-04T04:03:11;17.17;;;12.50;;
43345;SDS011;28937;51.160;4.146;2023-02-04T04:05:37;18.00;;;12.93;;
43345;SDS011;28937;51.160;4.146;2023-02-04T04:08:02;16.35;;;13.20;;
43345;SDS011;28937;51.160;4.146;2023-02-04T04:10:28;19.23;;;13.68;;
43345;SDS011;28937;51.160;4.146;2023-02-04T04:12:53;18.05;;;12.35;;
43345;SDS011;28937;51.160;4.146;2023-02-04T04:15:19;19.52;;;13.52;;
43345;SDS011;28937;51.160;4.146;2023-02-04T04:17:44;18.27;;;13.52;;
43345;SDS011;28937;51.160;4.146;2023-02-04T04:20:10;17.63;;;14.75;;
43345;SDS011;28937;51.160;4.146;2023-02-04T04:22:36;18.73;;;14.05;;
43345;SDS011;28937;51.160;4.146;2023-02-04T04:25:02;17.85;;;14.00;;
43345;SDS011;28937;51.160;4.146;2023-02-04T04:27:28;17.00;;;14.27;;
43345;SDS011;28937;51.160;4.146;2023-02-04T04:29:54;18.73;;;13.88;;
43345;SDS011;28937;51.160;4.146;2023-02-04T04:32:20;18.27;;;14.57;;
43345;SDS011;28937;51.160;4.146;2023-02-04T04:34:45;16.08;;;12.88;;
43345;SDS011;28937;51.160;4.146;2023-02-04T04:37:11;16.98;;;13.60;;
43345;SDS011;28937;51.160;4.146;2023-02-04T04:39:36;18.45;;;14.15;;
43345;SDS011;28937;51.160;4.146;2023-02-04T04:42:02;18.02;;;14.45;;
43345;SDS011;28937;51.160;4.146;2023-02-04T04:44:28;17.25;;;13.68;;
43345;SDS011;28937;51.160;4.146;2023-02-04T04:46:53;17.90;;;14.40;;
43345;SDS011;28937;51.160;4.146;2023-02-04T04:49:19;18.88;;;14.32;;
43345;SDS011;28937;51.160;4.146;2023-02-04T04:51:45;17.70;;;13.65;;
43345;SDS011;28937;51.160;4.146;2023-02-04T04:54:10;18.88;;;14.85;;
43345;SDS011;28937;51.160;4.146;2023-02-04T04:56:36;17.42;;;13.68;;
43345;SDS011;28937;51.160;4.146;2023-02-04T04:59:01;21.30;;;15.27;;
43345;SDS011;28937;51.160;4.146;2023-02-04T05:01:27;20.73;;;15.73;;
43345;SDS011;28937;51.160;4.146;2023-02-04T05:03:53;20.20;;;14.82;;
43345;SDS011;28937;51.160;4.146;2023-02-04T05:06:19;21.48;;;15.27;;
43345;SDS011;28937;51.160;4.146;2023-02-04T05:08:49;19.20;;;15.18;;
43345;SDS011;28937;51.160;4.146;2023-02-04T05:11:15;20.95;;;15.60;;
43345;SDS011;28937;51.160;4.146;2023-02-04T05:13:41;22.33;;;15.55;;
43345;SDS011;28937;51.160;4.146;2023-02-04T05:16:07;17.90;;;14.20;;
43345;SDS011;28937;51.160;4.146;2023-02-04T05:18:32;21.30;;;16.17;;
43345;SDS011;28937;51.160;4.146;2023-02-04T05:20:58;24.95;;;17.67;;
43345;SDS011;28937;51.160;4.146;2023-02-04T05:23:23;22.63;;;16.33;;
43345;SDS011;28937;51.160;4.146;2023-02-04T05:25:49;20.42;;;15.90;;
43345;SDS011;28937;51.160;4.146;2023-02-04T05:28:14;23.40;;;16.52;;
43345;SDS011;28937;51.160;4.146;2023-02-04T05:30:40;22.73;;;16.38;;
43345;SDS011;28937;51.160;4.146;2023-02-04T05:33:05;24.20;;;16.45;;
43345;SDS011;28937;51.160;4.146;2023-02-04T05:35:31;22.48;;;15.80;;
43345;SDS011;28937;51.160;4.146;2023-02-04T05:37:56;20.80;;;16.58;;
43345;SDS011;28937;51.160;4.146;2023-02-04T05:40:22;26.08;;;17.17;;
43345;SDS011;28937;51.160;4.146;2023-02-04T05:42:47;24.92;;;17.15;;
43345;SDS011;28937;51.160;4.146;2023-02-04T05:45:14;24.25;;;18.15;;
43345;SDS011;28937;51.160;4.146;2023-02-04T05:47:40;22.98;;;17.23;;
43345;SDS011;28937;51.160;4.146;2023-02-04T05:50:06;25.00;;;17.25;;
43345;SDS011;28937;51.160;4.146;2023-02-04T05:52:32;24.38;;;16.90;;
43345;SDS011;28937;51.160;4.146;2023-02-04T05:54:58;24.75;;;18.15;;
43345;SDS011;28937;51.160;4.146;2023-02-04T05:57:23;22.83;;;16.40;;
43345;SDS011;28937;51.160;4.146;2023-02-04T05:59:49;27.23;;;18.20;;
43345;SDS011;28937;51.160;4.146;2023-02-04T06:02:14;22.17;;;17.25;;
43345;SDS011;28937;51.160;4.146;2023-02-04T06:04:40;22.15;;;16.25;;
43345;SDS011;28937;51.160;4.146;2023-02-04T06:07:05;24.85;;;17.05;;
43345;SDS011;28937;51.160;4.146;2023-02-04T06:09:31;19.73;;;15.43;;
43345;SDS011;28937;51.160;4.146;2023-02-04T06:11:56;19.90;;;14.48;;
43345;SDS011;28937;51.160;4.146;2023-02-04T06:14:22;19.38;;;15.25;;
43345;SDS011;28937;51.160;4.146;2023-02-04T06:16:48;20.83;;;15.18;;
43345;SDS011;28937;51.160;4.146;2023-02-04T06:19:13;19.08;;;14.38;;
43345;SDS011;28937;51.160;4.146;2023-02-04T06:21:39;17.80;;;14.10;;
43345;SDS011;28937;51.160;4.146;2023-02-04T06:24:05;19.20;;;14.55;;
43345;SDS011;28937;51.160;4.146;2023-02-04T06:26:30;18.65;;;15.10;;
43345;SDS011;28937;51.160;4.146;2023-02-04T06:28:56;20.45;;;15.32;;
43345;SDS011;28937;51.160;4.146;2023-02-04T06:31:21;19.60;;;14.77;;
43345;SDS011;28937;51.160;4.146;2023-02-04T06:33:47;15.35;;;13.05;;
43345;SDS011;28937;51.160;4.146;2023-02-04T06:36:12;14.82;;;11.18;;
43345;SDS011;28937;51.160;4.146;2023-02-04T06:38:38;17.13;;;12.43;;
43345;SDS011;28937;51.160;4.146;2023-02-04T06:41:04;17.35;;;10.63;;
43345;SDS011;28937;51.160;4.146;2023-02-04T06:43:30;17.02;;;11.93;;
43345;SDS011;28937;51.160;4.146;2023-02-04T06:45:55;16.30;;;10.45;;
43345;SDS011;28937;51.160;4.146;2023-02-04T06:48:21;17.27;;;10.43;;
43345;SDS011;28937;51.160;4.146;2023-02-04T06:50:47;17.80;;;10.57;;
43345;SDS011;28937;51.160;4.146;2023-02-04T06:53:13;16.73;;;10.07;;
43345;SDS011;28937;51.160;4.146;2023-02-04T06:55:38;20.38;;;10.43;;
43345;SDS011;28937;51.160;4.146;2023-02-04T06:58:04;13.27;;;10.23;;
43345;SDS011;28937;51.160;4.146;2023-02-04T07:00:29;15.18;;;10.15;;
43345;SDS011;28937;51.160;4.146;2023-02-04T07:02:55;14.82;;;9.85;;
43345;SDS011;28937;51.160;4.146;2023-02-04T07:05:22;14.13;;;9.90;;
43345;SDS011;28937;51.160;4.146;2023-02-04T07:07:48;15.32;;;10.00;;
43345;SDS011;28937;51.160;4.146;2023-02-04T07:10:15;13.38;;;10.45;;
43345;SDS011;28937;51.160;4.146;2023-02-04T07:12:41;12.52;;;11.05;;
43345;SDS011;28937;51.160;4.146;2023-02-04T07:15:07;11.57;;;9.57;;
43345;SDS011;28937;51.160;4.146;2023-02-04T07:17:33;12.00;;;9.95;;
43345;SDS011;28937;51.160;4.146;2023-02-04T07:19:58;12.70;;;10.20;;
43345;SDS011;28937;51.160;4.146;2023-02-04T07:22:24;13.73;;;10.48;;
43345;SDS011;28937;51.160;4.146;2023-02-04T07:24:49;13.20;;;10.82;;
43345;SDS011;28937;51.160;4.146;2023-02-04T07:27:15;17.55;;;12.30;;
43345;SDS011;28937;51.160;4.146;2023-02-04T07:29:40;14.43;;;11.15;;
43345;SDS011;28937;51.160;4.146;2023-02-04T07:32:06;16.25;;;12.00;;
43345;SDS011;28937;51.160;4.146;2023-02-04T07:34:32;16.73;;;12.05;;
43345;SDS011;28937;51.160;4.146;2023-02-04T07:36:57;15.73;;;11.88;;
43345;SDS011;28937;51.160;4.146;2023-02-04T07:39:23;18.70;;;12.55;;
43345;SDS011;28937;51.160;4.146;2023-02-04T07:41:49;17.20;;;12.57;;
43345;SDS011;28937;51.160;4.146;2023-02-04T07:44:14;16.58;;;12.23;;
43345;SDS011;28937;51.160;4.146;2023-02-04T07:46:40;15.10;;;11.75;;
43345;SDS011;28937;51.160;4.146;2023-02-04T07:49:05;14.25;;;9.25;;
43345;SDS011;28937;51.160;4.146;2023-02-04T07:51:31;11.27;;;9.40;;
43345;SDS011;28937;51.160;4.146;2023-02-04T07:53:57;15.57;;;9.40;;
43345;SDS011;28937;51.160;4.146;2023-02-04T07:56:22;15.20;;;8.30;;
43345;SDS011;28937;51.160;4.146;2023-02-04T07:58:48;14.15;;;9.00;;
43345;SDS011;28937;51.160;4.146;2023-02-04T08:01:14;11.60;;;8.45;;
43345;SDS011;28937;51.160;4.146;2023-02-04T08:03:39;12.48;;;8.82;;
43345;SDS011;28937;51.160;4.146;2023-02-04T08:06:06;12.15;;;8.07;;
43345;SDS011;28937;51.160;4.146;2023-02-04T08:08:32;15.88;;;8.95;;
43345;SDS011;28937;51.160;4.146;2023-02-04T08:10:57;10.55;;;7.28;;
43345;SDS011;28937;51.160;4.146;2023-02-04T08:13:23;11.60;;;8.77;;
43345;SDS011;28937;51.160;4.146;2023-02-04T08:15:49;12.70;;;8.18;;
43345;SDS011;28937;51.160;4.146;2023-02-04T08:18:15;12.93;;;7.93;;
43345;SDS011;28937;51.160;4.146;2023-02-04T08:20:41;11.05;;;7.13;;
43345;SDS011;28937;51.160;4.146;2023-02-04T08:23:07;11.48;;;6.70;;
43345;SDS011;28937;51.160;4.146;2023-02-04T08:25:32;7.82;;;6.50;;
43345;SDS011;28937;51.160;4.146;2023-02-04T08:27:58;11.35;;;7.22;;
43345;SDS011;28937;51.160;4.146;2023-02-04T08:30:24;12.38;;;8.32;;
43345;SDS011;28937;51.160;4.146;2023-02-04T08:32:49;9.70;;;8.32;;
43345;SDS011;28937;51.160;4.146;2023-02-04T08:35:15;9.63;;;7.80;;
43345;SDS011;28937;51.160;4.146;2023-02-04T08:37:40;10.85;;;9.00;;
43345;SDS011;28937;51.160;4.146;2023-02-04T08:40:06;8.98;;;8.07;;
43345;SDS011;28937;51.160;4.146;2023-02-04T08:42:32;9.73;;;8.60;;
43345;SDS011;28937;51.160;4.146;2023-02-04T08:44:58;8.70;;;7.80;;
43345;SDS011;28937;51.160;4.146;2023-02-04T08:47:24;10.65;;;9.00;;
43345;SDS011;28937;51.160;4.146;2023-02-04T08:49:50;10.82;;;8.75;;
43345;SDS011;28937;51.160;4.146;2023-02-04T08:52:15;9.60;;;8.60;;
43345;SDS011;28937;51.160;4.146;2023-02-04T08:54:41;7.10;;;6.18;;
43345;SDS011;28937;51.160;4.146;2023-02-04T08:57:06;8.57;;;5.40;;
43345;SDS011;28937;51.160;4.146;2023-02-04T08:59:32;10.48;;;6.05;;
43345;SDS011;28937;51.160;4.146;2023-02-04T09:01:58;9.05;;;5.50;;
43345;SDS011;28937;51.160;4.146;2023-02-04T09:04:23;7.80;;;5.65;;
43345;SDS011;28937;51.160;4.146;2023-02-04T09:06:49;7.85;;;6.50;;
43345;SDS011;28937;51.160;4.146;2023-02-04T09:09:15;8.20;;;5.85;;
43345;SDS011;28937;51.160;4.146;2023-02-04T09:11:41;9.25;;;5.80;;
43345;SDS011;28937;51.160;4.146;2023-02-04T09:14:07;10.25;;;6.97;;
43345;SDS011;28937;51.160;4.146;2023-02-04T09:16:33;6.68;;;5.97;;
43345;SDS011;28937;51.160;4.146;2023-02-04T09:18:59;9.20;;;5.88;;
43345;SDS011;28937;51.160;4.146;2023-02-04T09:21:26;6.55;;;5.90;;
43345;SDS011;28937;51.160;4.146;2023-02-04T09:23:51;6.55;;;5.95;;
43345;SDS011;28937;51.160;4.146;2023-02-04T09:26:17;6.95;;;5.60;;
43345;SDS011;28937;51.160;4.146;2023-02-04T09:28:43;6.85;;;6.15;;
43345;SDS011;28937;51.160;4.146;2023-02-04T09:31:08;6.20;;;5.57;;
43345;SDS011;28937;51.160;4.146;2023-02-04T09:33:35;9.82;;;6.20;;
43345;SDS011;28937;51.160;4.146;2023-02-04T09:36:01;7.40;;;6.10;;
43345;SDS011;28937;51.160;4.146;2023-02-04T09:38:26;8.48;;;6.82;;
43345;SDS011;28937;51.160;4.146;2023-02-04T09:40:53;6.57;;;5.63;;
43345;SDS011;28937;51.160;4.146;2023-02-04T09:43:23;6.47;;;5.20;;
43345;SDS011;28937;51.160;4.146;2023-02-04T09:45:51;6.53;;;5.88;;
43345;SDS011;28937;51.160;4.146;2023-02-04T09:48:17;6.50;;;5.88;;
43345;SDS011;28937;51.160;4.146;2023-02-04T09:50:43;7.43;;;6.60;;
43345;SDS011;28937;51.160;4.146;2023-02-04T09:53:10;6.95;;;6.22;;
43345;SDS011;28937;51.160;4.146;2023-02-04T09:55:39;10.63;;;6.45;;
43345;SDS011;28937;51.160;4.146;2023-02-04T09:58:10;6.75;;;6.03;;
43345;SDS011;28937;51.160;4.146;2023-02-04T10:00:43;8.23;;;6.05;;
43345;SDS011;28937;51.160;4.146;2023-02-04T10:03:12;6.85;;;5.95;;
43345;SDS011;28937;51.160;4.146;2023-02-04T10:05:40;7.13;;;6.22;;
43345;SDS011;28937;51.160;4.146;2023-02-04T10:08:08;6.78;;;5.18;;
43345;SDS011;28937;51.160;4.146;2023-02-04T10:10:38;4.95;;;4.45;;
43345;SDS011;28937;51.160;4.146;2023-02-04T10:13:05;5.55;;;4.95;;
43345;SDS011;28937;51.160;4.146;2023-02-04T10:15:37;7.28;;;6.57;;
43345;SDS011;28937;51.160;4.146;2023-02-04T10:18:04;9.05;;;8.10;;
43345;SDS011;28937;51.160;4.146;2023-02-04T10:20:31;8.07;;;6.85;;
43345;SDS011;28937;51.160;4.146;2023-02-04T10:22:57;8.45;;;7.40;;
43345;SDS011;28937;51.160;4.146;2023-02-04T10:25:24;11.13;;;8.10;;
43345;SDS011;28937;51.160;4.146;2023-02-04T10:27:51;7.82;;;7.07;;
43345;SDS011;28937;51.160;4.146;2023-02-04T10:30:25;11.60;;;9.45;;
43345;SDS011;28937;51.160;4.146;2023-02-04T10:32:52;10.77;;;9.07;;
43345;SDS011;28937;51.160;4.146;2023-02-04T10:35:19;12.68;;;10.00;;
43345;SDS011;28937;51.160;4.146;2023-02-04T10:37:46;14.60;;;10.63;;
43345;SDS011;28937;51.160;4.146;2023-02-04T10:40:47;14.63;;;11.60;;
43345;SDS011;28937;51.160;4.146;2023-02-04T10:43:10;16.58;;;13.00;;
43345;SDS011;28937;51.160;4.146;2023-02-04T10:45:46;18.27;;;14.77;;
43345;SDS011;28937;51.160;4.146;2023-02-04T10:48:18;19.67;;;15.00;;
43345;SDS011;28937;51.160;4.146;2023-02-04T10:50:45;23.45;;;16.70;;
43345;SDS011;28937;51.160;4.146;2023-02-04T10:53:12;23.52;;;17.05;;
43345;SDS011;28937;51.160;4.146;2023-02-04T10:55:59;21.10;;;16.70;;
43345;SDS011;28937;51.160;4.146;2023-02-04T10:58:27;21.35;;;16.50;;
43345;SDS011;28937;51.160;4.146;2023-02-04T11:00:54;21.38;;;14.98;;
43345;SDS011;28937;51.160;4.146;2023-02-04T11:03:27;20.85;;;16.13;;
43345;SDS011;28937;51.160;4.146;2023-02-04T11:05:57;23.75;;;16.65;;
43345;SDS011;28937;51.160;4.146;2023-02-04T11:08:31;19.48;;;15.05;;
43345;SDS011;28937;51.160;4.146;2023-02-04T11:13:39;19.73;;;15.23;;
43345;SDS011;28937;51.160;4.146;2023-02-04T11:16:07;21.52;;;15.90;;
43345;SDS011;28937;51.160;4.146;2023-02-04T11:18:56;19.58;;;15.05;;
43345;SDS011;28937;51.160;4.146;2023-02-04T11:26:38;19.63;;;13.23;;
43345;SDS011;28937;51.160;4.146;2023-02-04T11:39:15;16.67;;;12.07;;
43345;SDS011;28937;51.160;4.146;2023-02-04T11:41:45;15.98;;;11.70;;
43345;SDS011;28937;51.160;4.146;2023-02-04T11:44:11;16.67;;;12.43;;
43345;SDS011;28937;51.160;4.146;2023-02-04T11:46:40;15.35;;;12.27;;
43345;SDS011;28937;51.160;4.146;2023-02-04T11:49:11;15.88;;;13.40;;
43345;SDS011;28937;51.160;4.146;2023-02-04T11:51:42;16.80;;;13.15;;
43345;SDS011;28937;51.160;4.146;2023-02-04T11:54:10;15.45;;;13.23;;
43345;SDS011;28937;51.160;4.146;2023-02-04T11:56:36;17.60;;;12.85;;
43345;SDS011;28937;51.160;4.146;2023-02-04T11:59:02;17.33;;;13.60;;
43345;SDS011;28937;51.160;4.146;2023-02-04T12:01:31;16.85;;;12.90;;
43345;SDS011;28937;51.160;4.146;2023-02-04T12:03:58;16.40;;;12.77;;
43345;SDS011;28937;51.160;4.146;2023-02-04T12:06:35;18.20;;;12.32;;
43345;SDS011;28937;51.160;4.146;2023-02-04T12:14:46;19.98;;;14.23;;
43345;SDS011;28937;51.160;4.146;2023-02-04T12:17:21;18.83;;;14.20;;
43345;SDS011;28937;51.160;4.146;2023-02-04T12:19:47;21.15;;;14.50;;
43345;SDS011;28937;51.160;4.146;2023-02-04T12:22:12;18.83;;;14.23;;
43345;SDS011;28937;51.160;4.146;2023-02-04T12:24:39;20.60;;;14.27;;
43345;SDS011;28937;51.160;4.146;2023-02-04T12:27:05;19.35;;;13.57;;
43345;SDS011;28937;51.160;4.146;2023-02-04T12:29:30;21.20;;;13.00;;
43345;SDS011;28937;51.160;4.146;2023-02-04T12:31:56;14.48;;;10.57;;
43345;SDS011;28937;51.160;4.146;2023-02-04T12:34:21;21.55;;;12.48;;
43345;SDS011;28937;51.160;4.146;2023-02-04T12:36:48;17.13;;;11.55;;
43345;SDS011;28937;51.160;4.146;2023-02-04T12:39:14;17.75;;;11.65;;
43345;SDS011;28937;51.160;4.146;2023-02-04T12:41:42;13.27;;;11.00;;
43345;SDS011;28937;51.160;4.146;2023-02-04T12:44:08;19.45;;;11.75;;
43345;SDS011;28937;51.160;4.146;2023-02-04T12:46:34;13.07;;;10.43;;
43345;SDS011;28937;51.160;4.146;2023-02-04T12:48:59;13.32;;;10.15;;
43345;SDS011;28937;51.160;4.146;2023-02-04T12:51:25;15.15;;;9.80;;
43345;SDS011;28937;51.160;4.146;2023-02-04T12:53:51;13.73;;;10.23;;
43345;SDS011;28937;51.160;4.146;2023-02-04T12:56:17;17.50;;;10.90;;
43345;SDS011;28937;51.160;4.146;2023-02-04T12:58:44;16.05;;;9.88;;
43345;SDS011;28937;51.160;4.146;2023-02-04T13:01:10;14.35;;;10.98;;
43345;SDS011;28937;51.160;4.146;2023-02-04T13:03:36;16.80;;;10.07;;
43345;SDS011;28937;51.160;4.146;2023-02-04T13:06:01;15.82;;;11.50;;
43345;SDS011;28937;51.160;4.146;2023-02-04T13:08:27;14.82;;;11.23;;
43345;SDS011;28937;51.160;4.146;2023-02-04T13:10:52;15.80;;;11.38;;
43345;SDS011;28937;51.160;4.146;2023-02-04T13:13:19;15.10;;;11.98;;
43345;SDS011;28937;51.160;4.146;2023-02-04T13:15:46;19.45;;;12.82;;
43345;SDS011;28937;51.160;4.146;2023-02-04T13:18:12;18.98;;;12.98;;
43345;SDS011;28937;51.160;4.146;2023-02-04T13:20:38;17.02;;;10.57;;
43345;SDS011;28937;51.160;4.146;2023-02-04T13:23:04;17.65;;;12.65;;
43345;SDS011;28937;51.160;4.146;2023-02-04T13:25:30;19.40;;;12.98;;
43345;SDS011;28937;51.160;4.146;2023-02-04T13:27:56;15.95;;;9.63;;
43345;SDS011;28937;51.160;4.146;2023-02-04T13:30:22;19.67;;;13.52;;
43345;SDS011;28937;51.160;4.146;2023-02-04T13:32:47;17.15;;;13.45;;
43345;SDS011;28937;51.160;4.146;2023-02-04T13:35:13;21.77;;;12.63;;
43345;SDS011;28937;51.160;4.146;2023-02-04T13:37:38;21.52;;;12.90;;
43345;SDS011;28937;51.160;4.146;2023-02-04T13:40:04;20.90;;;13.88;;
43345;SDS011;28937;51.160;4.146;2023-02-04T13:42:31;16.63;;;13.45;;
43345;SDS011;28937;51.160;4.146;2023-02-04T13:44:57;20.70;;;14.10;;
43345;SDS011;28937;51.160;4.146;2023-02-04T13:47:22;21.48;;;13.93;;
43345;SDS011;28937;51.160;4.146;2023-02-04T13:49:48;19.90;;;12.32;;
43345;SDS011;28937;51.160;4.146;2023-02-04T13:52:13;16.65;;;12.07;;
43345;SDS011;28937;51.160;4.146;2023-02-04T13:54:42;19.13;;;12.60;;
43345;SDS011;28937;51.160;4.146;2023-02-04T13:57:08;14.65;;;11.70;;
43345;SDS011;28937;51.160;4.146;2023-02-04T13:59:33;18.10;;;11.52;;
43345;SDS011;28937;51.160;4.146;2023-02-04T14:01:59;18.40;;;11.77;;
43345;SDS011;28937;51.160;4.146;2023-02-04T14:04:24;19.70;;;11.25;;
43345;SDS011;28937;51.160;4.146;2023-02-04T14:06:51;16.92;;;10.80;;
43345;SDS011;28937;51.160;4.146;2023-02-04T14:09:18;14.25;;;7.78;;
43345;SDS011;28937;51.160;4.146;2023-02-04T14:11:44;11.02;;;7.65;;
43345;SDS011;28937;51.160;4.146;2023-02-04T14:14:10;13.40;;;9.43;;
43345;SDS011;28937;51.160;4.146;2023-02-04T14:16:35;15.80;;;9.68;;
43345;SDS011;28937;51.160;4.146;2023-02-04T14:19:01;17.10;;;10.23;;
43345;SDS011;28937;51.160;4.146;2023-02-04T14:21:27;16.65;;;10.48;;
43345;SDS011;28937;51.160;4.146;2023-02-04T14:23:52;13.38;;;8.73;;
43345;SDS011;28937;51.160;4.146;2023-02-04T14:26:18;12.77;;;9.13;;
43345;SDS011;28937;51.160;4.146;2023-02-04T14:28:43;13.07;;;8.57;;
43345;SDS011;28937;51.160;4.146;2023-02-04T14:31:09;12.80;;;8.88;;
43345;SDS011;28937;51.160;4.146;2023-02-04T14:33:35;14.65;;;7.95;;
43345;SDS011;28937;51.160;4.146;2023-02-04T14:36:00;13.02;;;8.18;;
43345;SDS011;28937;51.160;4.146;2023-02-04T14:38:26;10.85;;;6.82;;
43345;SDS011;28937;51.160;4.146;2023-02-04T14:40:56;12.60;;;7.07;;
43345;SDS011;28937;51.160;4.146;2023-02-04T14:43:22;13.23;;;6.53;;
43345;SDS011;28937;51.160;4.146;2023-02-04T14:45:48;15.40;;;6.97;;
43345;SDS011;28937;51.160;4.146;2023-02-04T14:48:14;9.95;;;6.55;;